createdAt,value
2019-04-11T00:00:35.451Z,15.73
2019-04-11T00:03:04.946Z,15.77
2019-04-11T00:05:33.400Z,15.47
2019-04-11T00:08:01.899Z,14.53
2019-04-11T00:10:31.306Z,14.23
2019-04-11T00:12:59.747Z,15.50
2019-04-11T00:15:28.784Z,13.97
2019-04-11T00:17:58.483Z,16.23
2019-04-11T00:20:27.038Z,15.47
2019-04-11T00:22:55.350Z,14.07
2019-04-11T00:25:23.687Z,13.90
2019-04-11T00:27:53.123Z,13.47
2019-04-11T00:30:21.636Z,13.87
2019-04-11T00:32:50.042Z,13.97
2019-04-11T00:35:19.619Z,13.80
2019-04-11T00:37:47.990Z,13.77
2019-04-11T00:40:17.484Z,13.23
2019-04-11T00:42:47.120Z,13.30
2019-04-11T00:45:15.898Z,13.30
2019-04-11T00:47:44.992Z,14.20
2019-04-11T00:50:13.528Z,13.83
2019-04-11T00:52:41.836Z,13.33
2019-04-11T00:55:11.176Z,13.87
2019-04-11T00:57:39.594Z,13.90
2019-04-11T01:00:09.049Z,12.97
2019-04-11T01:02:37.773Z,14.10
2019-04-11T01:05:07.549Z,12.80
2019-04-11T01:07:36.048Z,13.57
2019-04-11T01:10:06.737Z,13.33
2019-04-11T01:12:35.126Z,12.43
2019-04-11T01:15:05.005Z,12.60
2019-04-11T01:17:33.662Z,13.80
2019-04-11T01:20:02.933Z,12.43
2019-04-11T01:22:31.958Z,12.73
2019-04-11T01:25:00.555Z,12.10
2019-04-11T01:27:29.866Z,12.43
2019-04-11T01:29:58.303Z,12.23
2019-04-11T01:32:26.617Z,12.13
2019-04-11T01:34:55.106Z,12.17
2019-04-11T01:37:23.931Z,12.30
2019-04-11T01:39:59.460Z,12.07
2019-04-11T01:42:28.741Z,12.07
2019-04-11T01:44:57.137Z,12.67
2019-04-11T01:47:43.223Z,12.97
2019-04-11T01:50:13.251Z,12.20
2019-04-11T01:52:42.488Z,12.33
2019-04-11T01:55:10.930Z,11.60
2019-04-11T01:57:40.241Z,11.17
2019-04-11T02:00:12.221Z,12.80
2019-04-11T02:02:46.436Z,12.77
2019-04-11T02:05:16.749Z,12.43
2019-04-11T02:07:45.151Z,11.70
2019-04-11T02:10:14.715Z,13.53
2019-04-11T02:12:43.601Z,12.83
2019-04-11T02:15:12.352Z,11.17
2019-04-11T02:17:41.139Z,12.50
2019-04-11T02:20:09.829Z,11.83
2019-04-11T02:22:48.790Z,11.10
2019-04-11T02:25:35.260Z,11.07
2019-04-11T02:28:06.485Z,10.40
2019-04-11T02:30:38.708Z,12.50
2019-04-11T02:33:07.683Z,12.57
2019-04-11T02:35:37.398Z,11.20
2019-04-11T02:38:07.547Z,10.87
2019-04-11T02:40:36.809Z,11.60
2019-04-11T02:43:07.123Z,12.27
2019-04-11T02:45:45.307Z,10.97
2019-04-11T02:48:07.825Z,10.80
2019-04-11T02:50:37.156Z,12.20
2019-04-11T02:53:07.229Z,11.33
2019-04-11T02:55:37.821Z,10.73
2019-04-11T02:58:07.855Z,11.17
2019-04-11T03:00:37.634Z,11.70
2019-04-11T03:03:07.954Z,11.60
2019-04-11T03:05:37.486Z,11.50
2019-04-11T03:08:11.148Z,11.67
2019-04-11T03:10:37.770Z,11.50
2019-04-11T03:13:08.243Z,10.70
2019-04-11T03:15:48.882Z,11.13
2019-04-11T03:18:09.522Z,11.30
2019-04-11T03:20:47.332Z,11.10
2019-04-11T03:23:09.870Z,11.17
2019-04-11T03:25:38.515Z,11.07
2019-04-11T03:28:12.109Z,11.33
2019-04-11T03:30:54.186Z,11.50
2019-04-11T03:38:30.897Z,11.37
2019-04-11T03:40:57.031Z,11.60
2019-04-11T03:43:20.859Z,11.67
2019-04-11T03:46:01.822Z,11.60
2019-04-11T03:48:23.660Z,11.10
2019-04-11T03:50:39.479Z,11.37
2019-04-11T03:53:10.934Z,11.60
2019-04-11T03:55:39.147Z,12.50
2019-04-11T03:58:08.553Z,11.40
2019-04-11T04:00:41.219Z,11.40
2019-04-11T04:03:09.083Z,11.37
2019-04-11T04:05:39.101Z,10.70
2019-04-11T04:08:08.966Z,11.10
2019-04-11T04:10:41.552Z,11.53
2019-04-11T04:13:15.368Z,11.23
2019-04-11T04:16:02.764Z,11.00
2019-04-11T04:18:34.106Z,11.63
2019-04-11T04:21:10.784Z,11.53
2019-04-11T04:23:41.047Z,11.20
2019-04-11T04:26:11.579Z,10.93
2019-04-11T04:28:40.804Z,11.33
2019-04-11T04:31:11.394Z,11.23
2019-04-11T04:33:40.295Z,11.33
2019-04-11T04:36:10.773Z,11.57
2019-04-11T04:38:41.194Z,10.90
2019-04-11T04:41:19.720Z,11.20
2019-04-11T04:43:41.141Z,11.50
2019-04-11T04:46:25.937Z,11.63
2019-04-11T04:48:41.032Z,11.53
2019-04-11T04:51:12.032Z,11.20
2019-04-11T04:53:41.072Z,11.13
2019-04-11T04:56:10.994Z,11.67
2019-04-11T04:58:39.978Z,11.20
2019-04-11T05:01:09.934Z,12.07
2019-04-11T05:03:40.275Z,10.47
2019-04-11T05:06:10.131Z,13.07
2019-04-11T05:08:39.024Z,12.00
2019-04-11T05:11:07.765Z,11.33
2019-04-11T05:13:36.714Z,12.27
2019-04-11T05:16:16.391Z,11.00
2019-04-11T05:18:36.472Z,13.23
2019-04-11T05:21:05.346Z,12.50
2019-04-11T05:23:33.907Z,11.17
2019-04-11T05:26:03.456Z,11.90
2019-04-11T05:28:31.956Z,12.30
2019-04-11T05:31:00.467Z,11.73
2019-04-11T05:33:29.399Z,11.83
2019-04-11T05:35:58.539Z,12.57
2019-04-11T05:38:27.332Z,12.13
2019-04-11T05:40:56.657Z,12.30
2019-04-11T05:43:29.292Z,13.23
2019-04-11T05:45:56.635Z,12.17
2019-04-11T05:48:27.108Z,11.70
2019-04-11T05:50:56.205Z,12.40
2019-04-11T05:53:24.993Z,13.10
2019-04-11T05:55:53.547Z,12.50
2019-04-11T05:58:21.987Z,12.17
2019-04-11T06:01:01.440Z,13.30
2019-04-11T06:03:30.262Z,12.83
2019-04-11T06:06:12.822Z,12.83
2019-04-11T06:08:42.031Z,12.33
2019-04-11T06:11:16.953Z,12.50
2019-04-11T06:13:44.740Z,13.50
2019-04-11T06:16:14.589Z,12.93
2019-04-11T06:18:48.134Z,14.50
2019-04-11T06:21:35.886Z,14.50
2019-04-11T06:24:12.156Z,13.27
2019-04-11T06:26:45.573Z,13.90
2019-04-11T06:29:24.351Z,14.30
2019-04-11T06:32:05.651Z,14.07
2019-04-11T06:34:51.270Z,14.00
2019-04-11T06:37:29.903Z,14.70
2019-04-11T06:40:02.608Z,15.27
2019-04-11T06:42:39.269Z,13.50
2019-04-11T06:45:21.871Z,14.17
2019-04-11T06:47:59.007Z,14.13
2019-04-11T06:50:33.350Z,14.20
2019-04-11T06:53:02.321Z,15.17
2019-04-11T06:55:48.475Z,14.23
2019-04-11T06:58:21.521Z,14.10
2019-04-11T07:00:53.531Z,15.17
2019-04-11T07:03:30.841Z,14.13
2019-04-11T07:06:01.316Z,14.33
2019-04-11T07:08:32.117Z,15.33
2019-04-11T07:11:08.057Z,14.73
2019-04-11T07:13:49.934Z,16.10
2019-04-11T07:16:18.612Z,15.30
2019-04-11T07:19:05.858Z,14.73
2019-04-11T07:21:35.329Z,15.00
2019-04-11T07:24:24.679Z,15.57
2019-04-11T07:26:54.797Z,15.10
2019-04-11T07:29:31.540Z,15.03
2019-04-11T07:32:04.983Z,15.63
2019-04-11T07:34:36.256Z,16.00
2019-04-11T07:37:23.528Z,16.10
2019-04-11T07:39:53.921Z,15.60
2019-04-11T07:42:26.600Z,15.40
2019-04-11T07:44:57.617Z,15.50
2019-04-11T07:47:33.477Z,15.33
2019-04-11T07:50:04.171Z,15.13
2019-04-11T07:52:34.507Z,14.90
2019-04-11T07:55:03.057Z,14.40
2019-04-11T07:57:36.191Z,15.90
2019-04-11T08:00:13.043Z,16.40
2019-04-11T08:03:01.942Z,14.83
2019-04-11T08:05:44.642Z,15.67
2019-04-11T08:08:17.630Z,15.03
2019-04-11T08:10:56.691Z,16.00
2019-04-11T08:13:43.288Z,15.10
2019-04-11T08:16:30.787Z,16.07
2019-04-11T08:19:17.643Z,15.03
2019-04-11T08:22:04.190Z,14.73
2019-04-11T08:24:36.692Z,15.80
2019-04-11T08:27:23.237Z,15.13
2019-04-11T08:29:53.067Z,15.73
2019-04-11T08:32:38.155Z,15.77
2019-04-11T08:35:24.349Z,14.10
2019-04-11T08:38:00.956Z,14.60
2019-04-11T08:40:51.283Z,14.43
2019-04-11T08:43:27.408Z,14.93
2019-04-11T08:46:00.597Z,15.00
2019-04-11T08:48:30.830Z,14.90
2019-04-11T08:51:00.989Z,15.57
2019-04-11T08:53:33.730Z,14.90
2019-04-11T08:56:04.036Z,15.57
2019-04-11T08:58:44.861Z,15.60
2019-04-11T09:01:18.098Z,15.67
2019-04-11T09:03:59.779Z,16.60
2019-04-11T09:06:20.827Z,15.53
2019-04-11T09:08:56.880Z,15.40
2019-04-11T09:11:30.840Z,15.87
2019-04-11T09:14:16.855Z,15.90
2019-04-11T09:16:47.917Z,16.23
2019-04-11T09:19:30.669Z,17.13
2019-04-11T09:22:13.099Z,16.40
2019-04-11T09:24:43.321Z,16.33
2019-04-11T09:27:30.980Z,15.97
2019-04-11T09:30:19.093Z,15.87
2019-04-11T09:33:05.229Z,16.07
2019-04-11T09:35:37.873Z,16.17
2019-04-11T09:38:10.460Z,15.33
2019-04-11T09:40:47.899Z,15.67
2019-04-11T09:43:18.076Z,15.90
2019-04-11T09:46:00.361Z,16.47
2019-04-11T09:48:46.713Z,15.53
2019-04-11T09:51:19.411Z,16.57
2019-04-11T09:53:50.694Z,16.53
2019-04-11T09:56:20.850Z,16.27
2019-04-11T09:58:51.878Z,16.60
2019-04-11T10:01:30.945Z,17.10
2019-04-11T10:03:59.522Z,15.83
2019-04-11T10:06:46.523Z,16.77
2019-04-11T10:09:15.608Z,17.50
2019-04-11T10:11:52.571Z,16.17
2019-04-11T10:14:21.736Z,16.50
2019-04-11T10:17:08.688Z,17.10
2019-04-11T10:19:38.269Z,17.50
2019-04-11T10:22:15.107Z,17.97
2019-04-11T10:25:01.020Z,16.67
2019-04-11T10:27:47.574Z,17.13
2019-04-11T10:30:33.963Z,17.87
2019-04-11T10:33:16.981Z,17.00
2019-04-11T10:35:58.963Z,17.77
2019-04-11T10:38:28.669Z,18.53
2019-04-11T10:40:58.931Z,17.20
2019-04-11T10:43:27.213Z,17.40
2019-04-11T10:46:00.793Z,18.37
2019-04-11T10:48:38.792Z,18.23
2019-04-11T10:51:03.070Z,18.70
2019-04-11T10:53:31.445Z,19.40
2019-04-11T10:56:18.072Z,17.90
2019-04-11T10:58:49.021Z,18.00
2019-04-11T11:01:25.607Z,18.17
2019-04-11T11:04:09.481Z,17.90
2019-04-11T11:06:37.970Z,18.80
2019-04-11T11:09:20.268Z,17.93
2019-04-11T11:12:06.713Z,19.00
2019-04-11T11:14:49.042Z,18.37
2019-04-11T11:17:43.501Z,18.80
2019-04-11T11:20:03.612Z,17.93
2019-04-11T11:22:23.812Z,19.20
2019-04-11T11:25:13.577Z,20.03
2019-04-11T11:27:41.839Z,18.67
2019-04-11T11:30:21.168Z,19.33
2019-04-11T11:32:49.726Z,18.63
2019-04-11T11:35:24.081Z,20.40
2019-04-11T11:37:50.236Z,19.33
2019-04-11T11:40:41.272Z,19.70
2019-04-11T11:43:12.909Z,18.57
2019-04-11T11:45:59.340Z,18.50
2019-04-11T11:48:33.410Z,20.17
2019-04-11T11:51:06.800Z,19.00
2019-04-11T11:53:42.843Z,19.73
2019-04-11T11:56:12.336Z,18.70
2019-04-11T11:58:48.769Z,20.07
2019-04-11T12:01:26.057Z,19.57
2019-04-11T12:04:00.146Z,21.57
2019-04-11T12:06:27.131Z,21.13
2019-04-11T12:09:09.918Z,20.57
2019-04-11T12:11:40.037Z,21.43
2019-04-11T12:14:25.610Z,19.90
2019-04-11T12:17:04.820Z,20.33
2019-04-11T12:19:49.324Z,20.80
2019-04-11T12:22:12.425Z,21.20
2019-04-11T12:24:58.455Z,21.10
2019-04-11T12:27:32.889Z,21.63
2019-04-11T12:30:23.882Z,22.50
2019-04-11T12:32:55.786Z,21.07
2019-04-11T12:35:38.130Z,20.93
2019-04-11T12:38:13.830Z,21.10
2019-04-11T12:40:46.934Z,21.77
2019-04-11T12:43:16.979Z,21.70
2019-04-11T12:45:49.432Z,23.47
2019-04-11T12:48:18.195Z,22.37
2019-04-11T12:50:54.363Z,21.40
2019-04-11T12:53:22.815Z,21.10
2019-04-11T12:56:08.963Z,21.90
2019-04-11T12:58:41.811Z,21.67
2019-04-11T13:01:26.945Z,22.37
2019-04-11T13:04:08.525Z,21.70
2019-04-11T13:06:38.510Z,22.80
2019-04-11T13:09:19.686Z,22.67
2019-04-11T13:11:49.730Z,22.60
2019-04-11T13:14:28.488Z,22.07
2019-04-11T13:17:15.342Z,21.67
2019-04-11T13:19:45.302Z,21.63
2019-04-11T13:22:18.041Z,23.30
2019-04-11T13:24:48.051Z,21.03
2019-04-11T13:27:18.417Z,22.80
2019-04-11T13:30:04.723Z,21.80
2019-04-11T13:32:37.819Z,21.77
2019-04-11T13:35:25.298Z,22.30
2019-04-11T13:38:07.078Z,21.30
2019-04-11T13:40:46.147Z,21.57
2019-04-11T13:43:31.572Z,20.57
2019-04-11T13:46:07.278Z,21.80
2019-04-11T13:48:53.608Z,22.23
2019-04-11T13:51:32.775Z,20.50
2019-04-11T13:54:19.486Z,20.07
2019-04-11T13:56:58.722Z,20.83
2019-04-11T13:59:34.587Z,21.53
2019-04-11T14:02:17.660Z,21.83
2019-04-11T14:04:54.577Z,21.37
2019-04-11T14:07:27.736Z,20.80
2019-04-11T14:10:01.686Z,21.07
2019-04-11T14:12:30.084Z,20.93
2019-04-11T14:15:00.219Z,22.10
2019-04-11T14:17:48.477Z,20.77
2019-04-11T14:20:30.140Z,20.40
2019-04-11T14:23:05.446Z,21.10
2019-04-11T14:25:35.908Z,20.90
2019-04-11T14:28:08.161Z,21.37
2019-04-11T14:30:41.050Z,20.43
2019-04-11T14:33:09.426Z,20.23
2019-04-11T14:35:42.570Z,20.53
2019-04-11T14:38:15.359Z,22.00
2019-04-11T14:41:02.205Z,20.00
2019-04-11T14:43:32.258Z,19.80
2019-04-11T14:46:18.445Z,21.10
2019-04-11T14:48:51.710Z,19.00
2019-04-11T14:51:31.593Z,19.73
2019-04-11T14:54:18.191Z,21.07
2019-04-11T14:57:03.830Z,19.50
2019-04-11T14:59:36.894Z,19.90
2019-04-11T15:02:19.065Z,22.00
2019-04-11T15:05:07.316Z,19.20
2019-04-11T15:07:39.823Z,20.47
2019-04-11T15:10:21.839Z,20.17
2019-04-11T15:12:51.139Z,20.00
2019-04-11T15:15:30.128Z,19.53
2019-04-11T15:18:02.961Z,19.97
2019-04-11T15:20:34.225Z,19.10
2019-04-11T15:23:06.972Z,18.37
2019-04-11T15:25:37.899Z,20.10
2019-04-11T15:28:12.367Z,20.47
2019-04-11T15:30:39.962Z,19.60
2019-04-11T15:33:15.600Z,20.30
2019-04-11T15:35:45.688Z,19.70
2019-04-11T15:38:17.398Z,18.57
2019-04-11T15:40:46.586Z,19.00
2019-04-11T15:43:28.657Z,19.17
2019-04-11T15:46:01.182Z,19.67
2019-04-11T15:48:42.025Z,19.43
2019-04-11T15:51:26.883Z,18.67
2019-04-11T15:54:15.084Z,19.83
2019-04-11T15:56:54.541Z,18.23
2019-04-11T15:59:24.642Z,19.17
2019-04-11T16:02:10.825Z,18.97
2019-04-11T16:04:46.795Z,18.93
2019-04-11T16:07:25.876Z,19.30
2019-04-11T16:09:58.551Z,18.67
2019-04-11T16:12:37.263Z,17.10
2019-04-11T16:15:08.779Z,17.30
2019-04-11T16:17:57.783Z,17.40
2019-04-11T16:20:25.428Z,16.77
2019-04-11T16:22:57.820Z,16.90
2019-04-11T16:25:29.031Z,18.80
2019-04-11T16:28:08.119Z,18.60
2019-04-11T16:30:39.710Z,18.60
2019-04-11T16:33:13.496Z,18.83
2019-04-11T16:35:48.930Z,17.53
2019-04-11T16:38:23.554Z,18.50
2019-04-11T16:41:02.354Z,18.00
2019-04-11T16:43:32.108Z,18.73
2019-04-11T16:46:08.040Z,17.50
2019-04-11T16:48:36.366Z,17.53
2019-04-11T16:51:06.036Z,17.20
2019-04-11T16:53:34.529Z,17.00
2019-04-11T16:56:03.025Z,18.00
2019-04-11T16:58:33.702Z,18.60
2019-04-11T17:01:02.049Z,19.37
2019-04-11T17:03:31.605Z,18.63
2019-04-11T17:06:01.571Z,19.57
2019-04-11T17:08:34.488Z,18.10
2019-04-11T17:11:04.739Z,17.60
2019-04-11T17:13:33.164Z,18.30
2019-04-11T17:16:02.727Z,18.47
2019-04-11T17:18:34.121Z,18.27
2019-04-11T17:21:01.429Z,18.03
2019-04-11T17:23:30.385Z,18.17
2019-04-11T17:25:58.857Z,17.27
2019-04-11T17:28:27.422Z,17.67
2019-04-11T17:30:55.999Z,17.93
2019-04-11T17:33:28.602Z,17.60
2019-04-11T17:35:56.184Z,18.60
2019-04-11T17:38:26.239Z,17.87
2019-04-11T17:40:54.750Z,18.00
2019-04-11T17:43:23.233Z,17.80
2019-04-11T17:45:51.524Z,17.90
2019-04-11T17:48:19.942Z,17.77
2019-04-11T17:50:48.395Z,17.83
2019-04-11T17:53:16.990Z,16.47
2019-04-11T17:55:45.386Z,17.73
2019-04-11T17:58:13.886Z,17.80
2019-04-11T18:00:55.574Z,17.87
2019-04-11T18:03:24.020Z,17.70
2019-04-11T18:05:52.507Z,17.57
2019-04-11T18:08:20.974Z,18.47
2019-04-11T18:10:49.236Z,18.20
2019-04-11T18:13:17.834Z,19.97
2019-04-11T18:15:46.153Z,18.40
2019-04-11T18:18:14.546Z,17.47
2019-04-11T18:20:43.071Z,18.07
2019-04-11T18:23:11.648Z,17.70
2019-04-11T18:25:40.131Z,20.23
2019-04-11T18:28:08.652Z,18.07
2019-04-11T18:30:37.153Z,17.43
2019-04-11T18:33:05.732Z,17.17
2019-04-11T18:35:34.251Z,17.63
2019-04-11T18:38:05.950Z,16.30
2019-04-11T18:40:34.420Z,16.30
2019-04-11T18:43:03.672Z,18.33
2019-04-11T18:45:32.225Z,17.33
2019-04-11T18:48:01.606Z,17.50
2019-04-11T18:50:30.244Z,18.17
2019-04-11T18:52:59.637Z,17.90
2019-04-11T18:55:28.696Z,19.83
2019-04-11T18:57:57.142Z,23.70
2019-04-11T19:00:28.879Z,20.53
2019-04-11T19:02:58.622Z,19.30
2019-04-11T19:05:28.928Z,17.70
2019-04-11T19:08:02.385Z,17.30
2019-04-11T19:10:30.809Z,19.50
2019-04-11T19:12:59.661Z,19.60
2019-04-11T19:15:28.736Z,18.17
2019-04-11T19:18:06.071Z,17.07
2019-04-11T19:20:27.425Z,16.93
2019-04-11T19:22:56.029Z,15.37
2019-04-11T19:25:24.628Z,17.13
2019-04-11T19:27:54.325Z,16.10
2019-04-11T19:30:23.953Z,16.10
2019-04-11T19:32:53.392Z,15.50
2019-04-11T19:35:21.823Z,15.60
2019-04-11T19:37:50.178Z,16.00
2019-04-11T19:40:18.612Z,14.97
2019-04-11T19:42:49.255Z,14.57
2019-04-11T19:45:19.550Z,14.87
2019-04-11T19:47:51.496Z,14.63
2019-04-11T19:50:17.837Z,15.73
2019-04-11T19:52:46.225Z,14.40
2019-04-11T19:55:16.411Z,14.73
2019-04-11T19:57:44.848Z,13.80
2019-04-11T20:00:14.343Z,15.43
2019-04-11T20:02:42.706Z,14.00
2019-04-11T20:05:12.379Z,14.60
2019-04-11T20:07:40.814Z,13.87
2019-04-11T20:10:09.365Z,13.90
2019-04-11T20:12:37.701Z,15.03
2019-04-11T20:15:08.655Z,14.17
2019-04-11T20:17:44.174Z,13.50
2019-04-11T20:20:08.076Z,13.90
2019-04-11T20:22:39.280Z,13.37
2019-04-11T20:25:07.295Z,14.40
2019-04-11T20:27:35.668Z,14.60
2019-04-11T20:30:05.878Z,14.30
2019-04-11T20:32:34.238Z,14.10
2019-04-11T20:35:02.604Z,14.37
2019-04-11T20:37:39.268Z,13.67
2019-04-11T20:40:02.799Z,13.77
2019-04-11T20:42:31.230Z,13.43
2019-04-11T20:44:59.543Z,13.17
2019-04-11T20:47:29.608Z,15.17
2019-04-11T20:49:57.946Z,14.73
2019-04-11T20:52:26.270Z,14.40
2019-04-11T20:54:54.646Z,14.00
2019-04-11T20:57:25.986Z,13.50
2019-04-11T20:59:53.224Z,13.00
2019-04-11T21:02:21.543Z,14.20
2019-04-11T21:04:49.862Z,13.20
2019-04-11T21:07:18.294Z,12.67
2019-04-11T21:09:46.706Z,14.37
2019-04-11T21:12:16.636Z,13.77
2019-04-11T21:14:45.272Z,13.80
2019-04-11T21:17:13.608Z,14.30
2019-04-11T21:19:41.982Z,13.03
2019-04-11T21:22:10.455Z,13.90
2019-04-11T21:24:38.782Z,14.13
2019-04-11T21:27:07.266Z,15.10
2019-04-11T21:29:35.584Z,13.80
2019-04-11T21:32:04.015Z,13.47
2019-04-11T21:34:32.934Z,14.37
2019-04-11T21:37:02.558Z,13.50
2019-04-11T21:39:31.050Z,14.27
2019-04-11T21:41:59.455Z,13.80
2019-04-11T21:44:27.827Z,13.63
2019-04-11T21:46:56.411Z,13.67
2019-04-11T21:49:24.734Z,14.10
2019-04-11T21:51:53.040Z,14.27
2019-04-11T21:54:21.457Z,13.73
2019-04-11T21:56:50.392Z,13.83
2019-04-11T21:59:20.402Z,12.93
2019-04-11T22:01:49.046Z,13.57
2019-04-11T22:04:17.921Z,14.10
2019-04-11T22:06:46.248Z,13.40
2019-04-11T22:09:14.702Z,13.60
2019-04-11T22:11:43.086Z,13.97
2019-04-11T22:14:11.914Z,13.60
2019-04-11T22:16:44.058Z,13.47
2019-04-11T22:19:13.957Z,14.60
2019-04-11T22:21:45.004Z,12.90
2019-04-11T22:24:10.953Z,14.30
2019-04-11T22:26:39.349Z,14.00
2019-04-11T22:29:07.792Z,14.07
2019-04-11T22:31:36.074Z,13.60
2019-04-11T22:34:15.328Z,14.10
2019-04-11T22:36:43.672Z,13.47
2019-04-11T22:39:12.061Z,12.57
2019-04-11T22:41:40.516Z,14.07
2019-04-11T22:44:09.154Z,13.93
2019-04-11T22:46:38.294Z,14.20
2019-04-11T22:49:08.758Z,13.50
2019-04-11T22:51:36.780Z,13.83
2019-04-11T22:54:05.164Z,13.77
2019-04-11T22:56:33.549Z,13.97
2019-04-11T22:59:01.882Z,13.50
2019-04-11T23:01:30.324Z,12.87
2019-04-11T23:04:00.398Z,13.20
2019-04-11T23:06:28.825Z,13.80
2019-04-11T23:08:57.431Z,13.17
2019-04-11T23:11:25.745Z,14.13
2019-04-11T23:13:54.231Z,13.80
2019-04-11T23:16:22.797Z,13.60
2019-04-11T23:18:51.151Z,12.97
2019-04-11T23:21:19.657Z,14.33
2019-04-11T23:23:48.067Z,13.97
2019-04-11T23:26:17.422Z,13.10
2019-04-11T23:28:46.715Z,13.83
2019-04-11T23:31:19.748Z,13.83
2019-04-11T23:33:46.223Z,14.00
2019-04-11T23:36:14.599Z,14.17
2019-04-11T23:38:42.889Z,13.07
2019-04-11T23:41:12.436Z,11.80
2019-04-11T23:43:40.918Z,13.20
2019-04-11T23:46:09.233Z,14.20
2019-04-11T23:48:37.597Z,13.17
2019-04-11T23:51:06.007Z,13.20
2019-04-11T23:53:34.285Z,13.47
2019-04-11T23:56:02.866Z,14.07
2019-04-11T23:58:32.047Z,14.57
